Time;durP1;ratioP1;P1;durP2;ratioP2;P2;SDS_P1;SDS_P2;PMS_P1;PMS_P2;Temp;Humidity;BMP_temperature;BMP_pressure;BME280_temperature;BME280_humidity;BME280_pressure;Samples;Min_cycle;Max_cycle;Signal;HPM_P1;HPM_P2
2023/04/04 00:00:04;;;;;;;3.33;1.87;;;1.80;1.00;;;;;;5028789;28;20465;-84
2023/04/04 00:02:30;;;;;;;4.43;1.90;;;1.70;1.00;;;;;;5022535;28;20438;-85
2023/04/04 00:04:57;;;;;;;3.77;2.17;;;1.70;1.00;;;;;;5021338;28;20433;-84
2023/04/04 00:07:25;;;;;;;4.63;2.50;;;1.70;99.90;;;;;;5020230;28;20460;-83
2023/04/04 00:09:52;;;;;;;4.73;2.60;;;1.60;99.90;;;;;;5019620;28;20463;-83
2023/04/04 00:12:21;;;;;;;7.30;2.80;;;1.60;99.90;;;;;;5018729;28;20461;-84
2023/04/04 00:14:48;;;;;;;6.67;3.20;;;1.60;99.90;;;;;;5019226;28;20437;-84
2023/04/04 00:17:15;;;;;;;4.50;2.97;;;1.60;99.90;;;;;;5019161;28;20458;-85
2023/04/04 00:19:42;;;;;;;6.70;3.13;;;1.60;99.90;;;;;;5018518;28;20504;-83
2023/04/04 00:22:08;;;;;;;4.80;2.50;;;1.50;90.40;;;;;;5016713;28;20503;-83
2023/04/04 00:24:35;;;;;;;6.57;2.60;;;1.40;99.90;;;;;;5016735;28;20456;-84
2023/04/04 00:27:02;;;;;;;5.35;2.70;;;1.40;1.00;;;;;;5015859;28;20486;-83
2023/04/04 00:29:33;;;;;;;4.97;2.27;;;1.40;1.00;;;;;;5016336;28;20792;-84
2023/04/04 00:32:00;;;;;;;6.97;2.80;;;1.40;1.00;;;;;;5014329;28;20442;-83
2023/04/04 00:34:26;;;;;;;4.20;2.53;;;1.40;1.00;;;;;;5015047;28;20429;-83
2023/04/04 00:36:53;;;;;;;5.23;2.57;;;1.40;1.00;;;;;;5014103;28;20449;-82
2023/04/04 00:39:20;;;;;;;5.50;3.13;;;1.30;1.00;;;;;;5015119;28;20456;-83
2023/04/04 00:41:48;;;;;;;10.40;3.60;;;1.40;1.00;;;;;;5014655;28;20473;-82
2023/04/04 00:44:16;;;;;;;5.10;2.50;;;1.40;1.00;;;;;;5015372;28;20446;-83
2023/04/04 00:46:44;;;;;;;4.43;2.50;;;1.40;1.00;;;;;;5014754;28;20500;-83
2023/04/04 00:49:11;;;;;;;6.97;2.87;;;1.40;1.00;;;;;;5015010;28;20468;-81
2023/04/04 00:51:38;;;;;;;5.80;2.50;;;1.40;1.00;;;;;;5014505;28;20481;-82
2023/04/04 00:54:04;;;;;;;5.57;3.57;;;1.40;1.00;;;;;;5014391;28;20453;-84
2023/04/04 00:56:35;;;;;;;6.00;3.20;;;1.40;1.00;;;;;;5014943;28;20976;-83
2023/04/04 00:59:02;;;;;;;4.43;2.37;;;1.40;1.00;;;;;;5015350;28;20930;-82
2023/04/04 01:01:30;;;;;;;5.67;3.07;;;1.40;1.00;;;;;;5015459;28;20770;-83
2023/04/04 01:03:58;;;;;;;5.00;2.90;;;1.30;1.00;;;;;;5015276;28;20421;-84
2023/04/04 01:06:26;;;;;;;8.83;2.90;;;1.30;52.00;;;;;;5014885;28;20585;-83
2023/04/04 01:08:55;;;;;;;7.07;2.90;;;1.30;77.20;;;;;;5015360;28;20423;-83
2023/04/04 01:11:22;;;;;;;4.57;2.55;;;1.30;99.90;;;;;;5015922;28;20480;-83
2023/04/04 01:13:49;;;;;;;4.37;2.70;;;1.30;99.90;;;;;;5014853;28;20205;-83
2023/04/04 01:16:16;;;;;;;7.67;2.87;;;1.30;99.90;;;;;;5015159;28;20446;-83
2023/04/04 01:18:43;;;;;;;3.97;2.73;;;1.30;99.90;;;;;;5015061;28;20431;-83
2023/04/04 01:21:16;;;;;;;7.38;2.83;;;1.30;99.90;;;;;;5014348;28;20441;-83
2023/04/04 01:23:59;;;;;;;7.23;2.70;;;1.30;99.90;;;;;;5015639;28;20264;-83
2023/04/04 01:26:27;;;;;;;6.78;3.35;;;1.30;99.90;;;;;;5015224;28;20839;-83
2023/04/04 01:28:54;;;;;;;4.40;2.93;;;1.30;99.90;;;;;;5015245;28;20575;-84
2023/04/04 01:31:28;;;;;;;3.60;2.57;;;1.30;99.90;;;;;;5014390;28;20456;-83
2023/04/04 01:34:01;;;;;;;5.63;2.70;;;1.20;99.90;;;;;;5014598;28;20832;-83
2023/04/04 01:36:35;;;;;;;6.23;2.90;;;1.20;99.90;;;;;;5014723;28;20416;-82
2023/04/04 01:39:10;;;;;;;4.00;2.40;;;1.20;99.90;;;;;;5014928;28;20441;-83
2023/04/04 01:41:39;;;;;;;7.20;2.43;;;1.20;99.90;;;;;;5016115;28;20444;-85
2023/04/04 01:44:06;;;;;;;5.10;2.70;;;1.20;99.90;;;;;;5023966;28;20881;-85
2023/04/04 01:46:35;;;;;;;5.30;2.55;;;1.10;99.90;;;;;;5019184;28;20231;-85
2023/04/04 01:49:02;;;;;;;5.30;2.75;;;1.10;99.90;;;;;;5018958;28;20214;-84
2023/04/04 01:51:30;;;;;;;6.40;3.30;;;1.10;99.90;;;;;;5017272;28;20233;-84
2023/04/04 01:53:58;;;;;;;8.20;2.70;;;1.10;99.90;;;;;;5018155;28;20545;-85
2023/04/04 01:56:24;;;;;;;5.90;2.88;;;1.10;99.90;;;;;;5018291;28;20461;-84
2023/04/04 01:58:53;;;;;;;6.33;2.90;;;1.10;1.00;;;;;;5017342;28;20191;-84
2023/04/04 02:01:20;;;;;;;6.57;2.83;;;1.10;1.00;;;;;;5014696;28;20547;-83
2023/04/04 02:03:47;;;;;;;7.60;3.27;;;1.10;1.00;;;;;;5015576;28;20216;-84
2023/04/04 02:06:14;;;;;;;6.37;2.67;;;1.10;1.00;;;;;;5014497;28;20760;-83
2023/04/04 02:08:40;;;;;;;4.03;2.37;;;1.10;1.00;;;;;;5014774;28;20833;-84
2023/04/04 02:11:07;;;;;;;6.67;2.73;;;1.10;1.00;;;;;;5013377;28;20428;-84
2023/04/04 02:13:36;;;;;;;4.28;2.47;;;1.10;1.00;;;;;;5014335;28;20454;-84
2023/04/04 02:16:05;;;;;;;4.55;2.42;;;1.00;1.00;;;;;;5014430;28;20202;-83
2023/04/04 02:18:32;;;;;;;5.90;2.70;;;1.00;1.00;;;;;;5014641;28;20657;-86
2023/04/04 02:20:59;;;;;;;5.73;3.07;;;1.00;1.00;;;;;;5013864;28;20416;-84
2023/04/04 02:23:26;;;;;;;4.78;3.08;;;1.00;1.00;;;;;;5014787;28;20455;-84
2023/04/04 02:25:52;;;;;;;6.10;3.00;;;1.00;25.30;;;;;;5013961;28;20294;-86
2023/04/04 02:28:20;;;;;;;7.63;2.80;;;1.00;1.00;;;;;;5014434;28;20500;-84
2023/04/04 02:30:47;;;;;;;4.43;2.90;;;1.00;1.00;;;;;;5014166;28;20450;-85
2023/04/04 02:33:15;;;;;;;6.73;2.63;;;1.00;1.00;;;;;;5014485;28;20659;-84
2023/04/04 02:35:41;;;;;;;4.38;2.80;;;0.90;1.00;;;;;;5014902;28;20427;-84
2023/04/04 02:38:08;;;;;;;5.55;2.67;;;0.90;62.80;;;;;;5014730;28;20223;-84
2023/04/04 02:40:38;;;;;;;8.40;4.18;;;0.90;86.10;;;;;;5014382;28;20241;-83
2023/04/04 02:43:05;;;;;;;6.68;3.20;;;0.90;99.90;;;;;;5014492;28;20757;-84
2023/04/04 02:45:31;;;;;;;7.47;2.88;;;0.80;99.90;;;;;;5014776;28;20214;-84
2023/04/04 02:47:58;;;;;;;3.85;2.50;;;0.80;99.90;;;;;;5014989;28;20218;-85
2023/04/04 02:50:26;;;;;;;8.83;2.73;;;0.80;99.90;;;;;;5015015;28;20293;-83
2023/04/04 02:52:58;;;;;;;6.72;3.28;;;0.80;93.00;;;;;;5017034;28;20478;-84
2023/04/04 02:55:25;;;;;;;7.88;3.05;;;0.80;99.90;;;;;;5014126;28;20281;-83
2023/04/04 02:57:52;;;;;;;6.80;3.88;;;0.70;99.90;;;;;;5014296;28;20218;-85
2023/04/04 03:00:19;;;;;;;7.27;3.57;;;0.70;99.90;;;;;;5014234;28;20206;-85
2023/04/04 03:02:52;;;;;;;3.55;2.92;;;0.70;1.00;;;;;;5017432;28;20445;-84
2023/04/04 03:05:19;;;;;;;5.18;3.47;;;0.70;1.00;;;;;;5017852;28;20580;-84
2023/04/04 03:07:47;;;;;;;5.93;3.60;;;0.70;1.00;;;;;;5030403;22;20235;-83
2023/04/04 03:10:14;;;;;;;5.50;2.90;;;0.60;1.00;;;;;;5000384;28;20207;-84
2023/04/04 03:12:41;;;;;;;5.38;3.55;;;0.60;99.90;;;;;;5006459;28;20198;-80
2023/04/04 03:15:08;;;;;;;6.82;3.28;;;0.60;1.00;;;;;;5001175;28;20308;-82
2023/04/04 03:17:36;;;;;;;4.90;3.23;;;0.60;55.70;;;;;;5000800;28;20297;-80
2023/04/04 03:20:02;;;;;;;5.88;3.72;;;0.60;1.00;;;;;;5001810;28;20429;-84
2023/04/04 03:22:29;;;;;;;5.75;2.88;;;0.70;86.10;;;;;;5008560;28;20265;-82
2023/04/04 03:24:58;;;;;;;6.95;3.80;;;0.60;1.00;;;;;;5005330;28;20225;-80
2023/04/04 03:27:24;;;;;;;7.18;3.60;;;0.70;1.00;;;;;;5001193;28;20223;-81
2023/04/04 03:29:51;;;;;;;7.50;3.20;;;0.70;99.90;;;;;;4999629;28;20211;-82
2023/04/04 03:32:18;;;;;;;10.07;2.88;;;0.70;1.00;;;;;;4999510;28;20462;-82
2023/04/04 03:34:45;;;;;;;8.80;3.58;;;0.70;99.90;;;;;;5001281;28;20677;-81
2023/04/04 03:37:12;;;;;;;5.85;4.07;;;0.70;1.00;;;;;;5000750;28;20253;-82
2023/04/04 03:39:38;;;;;;;8.13;3.65;;;0.60;99.90;;;;;;5000968;28;20647;-81
2023/04/04 03:42:09;;;;;;;8.52;3.22;;;0.60;99.90;;;;;;5001890;28;20584;-81
2023/04/04 03:44:36;;;;;;;4.78;3.55;;;0.60;99.90;;;;;;4993666;28;20622;-82
2023/04/04 03:47:03;;;;;;;7.28;3.22;;;0.60;99.90;;;;;;5000669;28;20234;-82
2023/04/04 03:49:31;;;;;;;4.10;2.85;;;0.60;1.00;;;;;;4998891;28;20227;-83
2023/04/04 03:51:59;;;;;;;6.55;4.05;;;0.60;1.00;;;;;;4998856;28;20234;-80
2023/04/04 03:54:28;;;;;;;6.55;3.50;;;0.50;1.00;;;;;;4999289;28;20198;-83
2023/04/04 03:56:55;;;;;;;5.05;3.08;;;0.50;1.00;;;;;;4999916;28;20205;-81
2023/04/04 03:59:24;;;;;;;7.25;3.55;;;0.60;57.50;;;;;;4998517;28;20220;-81
2023/04/04 04:01:51;;;;;;;6.00;3.05;;;0.60;1.00;;;;;;5005420;28;20206;-83
2023/04/04 04:04:18;;;;;;;10.63;3.83;;;0.50;3.60;;;;;;4998643;28;20230;-82
2023/04/04 04:06:44;;;;;;;7.57;3.53;;;0.50;1.00;;;;;;4998126;28;20207;-82
2023/04/04 04:09:12;;;;;;;6.65;3.70;;;0.50;25.60;;;;;;4998822;28;20954;-81
2023/04/04 04:11:38;;;;;;;6.38;2.70;;;0.50;8.60;;;;;;4998869;28;20676;-83
2023/04/04 04:14:05;;;;;;;5.88;3.22;;;0.40;99.90;;;;;;4998619;28;20288;-82
2023/04/04 04:16:33;;;;;;;9.63;3.83;;;0.40;99.90;;;;;;4998790;28;20292;-83
2023/04/04 04:19:01;;;;;;;7.70;4.07;;;0.30;99.90;;;;;;4998164;28;20255;-82
2023/04/04 04:21:28;;;;;;;9.88;4.72;;;0.30;1.00;;;;;;5002082;28;20294;-82
2023/04/04 04:23:54;;;;;;;6.90;2.83;;;0.30;1.00;;;;;;5002861;28;20263;-81
2023/04/04 04:26:21;;;;;;;5.82;3.38;;;0.30;99.90;;;;;;5004453;28;20257;-85
2023/04/04 04:28:48;;;;;;;7.93;4.13;;;0.30;99.90;;;;;;5007953;28;20309;-82
2023/04/04 04:31:15;;;;;;;6.22;3.78;;;0.20;99.90;;;;;;5006456;28;20269;-81
2023/04/04 04:33:43;;;;;;;5.13;3.40;;;0.20;1.00;;;;;;5006886;28;20212;-81
2023/04/04 04:36:10;;;;;;;9.18;3.45;;;0.20;99.90;;;;;;5006918;28;20306;-81
2023/04/04 04:38:37;;;;;;;6.82;3.95;;;0.20;99.90;;;;;;5006644;28;20242;-80
2023/04/04 04:41:04;;;;;;;9.35;3.85;;;0.10;1.00;;;;;;5004537;28;20284;-81
2023/04/04 04:43:30;;;;;;;7.43;3.40;;;0.10;1.00;;;;;;5006869;28;20306;-81
2023/04/04 04:45:57;;;;;;;5.97;3.35;;;0.10;1.00;;;;;;5001094;28;20273;-82
2023/04/04 04:48:24;;;;;;;7.25;4.03;;;0.10;1.00;;;;;;4997962;28;20311;-83
2023/04/04 04:50:52;;;;;;;5.50;3.50;;;0.00;99.90;;;;;;5005266;28;20199;-83
2023/04/04 04:53:21;;;;;;;5.43;3.25;;;0.10;99.90;;;;;;5026569;28;20282;-83
2023/04/04 04:55:50;;;;;;;5.22;3.88;;;0.00;99.90;;;;;;5007272;28;20204;-81
2023/04/04 04:58:20;;;;;;;5.85;3.72;;;0.00;1.00;;;;;;5003942;28;20235;-80
2023/04/04 05:00:47;;;;;;;8.20;3.90;;;0.00;1.00;;;;;;4994520;28;20212;-83
2023/04/04 05:03:13;;;;;;;6.30;3.85;;;0.00;1.00;;;;;;4999807;28;20212;-80
2023/04/04 05:05:42;;;;;;;6.18;4.00;;;0.00;99.90;;;;;;4996211;28;20261;-81
2023/04/04 05:08:10;;;;;;;10.82;4.30;;;0.00;99.90;;;;;;4994528;28;20231;-82
2023/04/04 05:10:37;;;;;;;6.47;4.35;;;0.00;99.90;;;;;;4973827;28;20208;-82
2023/04/04 05:13:04;;;;;;;7.22;3.90;;;0.00;99.90;;;;;;4992244;28;20208;-81
2023/04/04 05:15:31;;;;;;;10.80;4.05;;;0.00;99.90;;;;;;4996039;28;20259;-82
2023/04/04 05:17:58;;;;;;;6.28;4.13;;;0.00;1.00;;;;;;4999066;28;20260;-82
2023/04/04 05:20:25;;;;;;;6.82;4.50;;;-0.10;1.00;;;;;;4995726;28;20206;-83
2023/04/04 05:22:51;;;;;;;7.28;4.22;;;0.00;1.00;;;;;;4999447;28;20200;-83
2023/04/04 05:25:20;;;;;;;9.40;4.28;;;0.00;1.00;;;;;;4998846;28;20282;-81
2023/04/04 05:27:48;;;;;;;8.80;4.70;;;0.00;1.00;;;;;;4995656;28;20229;-80
2023/04/04 05:30:15;;;;;;;9.15;4.15;;;0.00;1.00;;;;;;4997952;28;20225;-80
2023/04/04 05:32:44;;;;;;;12.25;5.20;;;0.00;1.00;;;;;;4996642;28;20208;-83
2023/04/04 05:35:11;;;;;;;9.32;5.80;;;0.00;99.90;;;;;;4993753;28;20295;-84
2023/04/04 05:37:39;;;;;;;9.70;5.28;;;0.00;36.90;;;;;;4995909;28;20305;-80
2023/04/04 05:40:08;;;;;;;9.77;5.75;;;0.00;99.90;;;;;;4999141;28;20693;-83
2023/04/04 05:42:36;;;;;;;10.43;5.85;;;0.10;99.90;;;;;;4999538;28;20214;-82
2023/04/04 05:45:03;;;;;;;14.77;5.55;;;0.10;1.00;;;;;;4995609;28;20204;-82
2023/04/04 05:47:29;;;;;;;11.10;6.57;;;0.20;99.90;;;;;;4996849;28;20225;-80
2023/04/04 05:49:56;;;;;;;10.75;6.25;;;0.30;99.90;;;;;;4994457;28;20200;-82
2023/04/04 05:52:23;;;;;;;15.65;9.23;;;0.30;99.90;;;;;;4994997;28;20674;-82
2023/04/04 05:54:50;;;;;;;16.63;9.20;;;0.30;99.90;;;;;;4996698;28;20246;-83
2023/04/04 05:57:17;;;;;;;11.80;7.10;;;0.30;1.00;;;;;;4997927;28;20207;-82
2023/04/04 05:59:46;;;;;;;16.95;7.53;;;0.40;99.90;;;;;;4996740;28;20638;-84
2023/04/04 06:02:12;;;;;;;11.35;7.47;;;0.50;99.90;;;;;;4991641;28;20207;-79
2023/04/04 06:04:39;;;;;;;11.40;6.25;;;0.50;99.90;;;;;;4999475;28;20289;-83
2023/04/04 06:07:06;;;;;;;11.37;6.80;;;0.60;99.90;;;;;;4997288;28;20214;-82
2023/04/04 06:09:35;;;;;;;21.33;8.07;;;0.70;1.00;;;;;;4995589;28;20953;-80
2023/04/04 06:12:03;;;;;;;11.38;5.13;;;0.80;1.00;;;;;;4995953;28;20199;-82
2023/04/04 06:14:30;;;;;;;11.40;6.38;;;0.90;1.00;;;;;;4996557;28;20278;-82
2023/04/04 06:16:58;;;;;;;10.07;6.75;;;1.00;99.90;;;;;;4999346;28;20211;-82
2023/04/04 06:19:25;;;;;;;9.85;5.22;;;1.10;99.90;;;;;;4992110;28;20223;-83
2023/04/04 06:21:52;;;;;;;12.70;5.90;;;1.10;1.00;;;;;;4992833;28;20714;-82
2023/04/04 06:24:19;;;;;;;11.07;6.13;;;1.20;77.90;;;;;;4993386;28;20434;-81
2023/04/04 06:26:50;;;;;;;9.53;5.37;;;1.20;1.00;;;;;;4994125;28;20229;-80
2023/04/04 06:29:17;;;;;;;16.43;5.83;;;1.30;99.90;;;;;;4993981;28;20849;-82
2023/04/04 06:31:44;;;;;;;9.60;6.07;;;1.30;99.90;;;;;;4994248;28;20455;-83
2023/04/04 06:34:12;;;;;;;7.40;5.00;;;1.40;99.90;;;;;;4995407;28;20269;-83
2023/04/04 06:36:39;;;;;;;9.55;6.05;;;1.50;99.90;;;;;;4995440;28;20458;-83
2023/04/04 06:39:06;;;;;;;10.43;5.43;;;1.70;1.00;;;;;;4994832;28;20230;-82
2023/04/04 06:41:33;;;;;;;12.30;6.10;;;1.80;99.90;;;;;;4994547;28;20497;-84
2023/04/04 06:44:00;;;;;;;11.07;5.80;;;1.90;99.90;;;;;;4993786;28;20482;-83
2023/04/04 06:46:29;;;;;;;9.10;5.60;;;1.90;35.80;;;;;;4993647;28;20436;-83
2023/04/04 06:48:55;;;;;;;9.48;5.78;;;2.00;1.00;;;;;;4993858;28;20489;-83
2023/04/04 06:51:24;;;;;;;9.97;5.67;;;2.10;1.00;;;;;;4993751;28;20203;-82
2023/04/04 06:53:51;;;;;;;10.50;5.03;;;2.10;99.90;;;;;;4994065;28;20536;-82
2023/04/04 06:56:18;;;;;;;6.67;4.63;;;2.10;99.90;;;;;;4997364;28;20455;-84
2023/04/04 06:58:45;;;;;;;7.60;4.90;;;2.20;99.90;;;;;;4995555;28;20524;-84
2023/04/04 07:01:12;;;;;;;10.20;5.27;;;2.30;99.90;;;;;;4996049;28;20445;-82
2023/04/04 07:03:38;;;;;;;11.93;5.50;;;2.50;99.90;;;;;;4997001;28;20455;-83
2023/04/04 07:06:06;;;;;;;8.77;5.07;;;2.50;99.90;;;;;;4996890;28;20455;-83
2023/04/04 07:08:34;;;;;;;8.80;5.07;;;2.50;99.90;;;;;;4996042;28;20850;-82
2023/04/04 07:11:01;;;;;;;6.63;4.33;;;2.60;99.90;;;;;;4995992;28;20470;-84
2023/04/04 07:13:28;;;;;;;11.80;4.93;;;2.60;99.90;;;;;;4995949;28;20450;-83
2023/04/04 07:15:55;;;;;;;7.00;4.43;;;2.70;99.90;;;;;;4992845;28;20436;-83
2023/04/04 07:18:22;;;;;;;7.33;4.33;;;2.80;3.40;;;;;;4993241;28;21316;-82
2023/04/04 07:20:49;;;;;;;13.87;5.30;;;2.90;2.70;;;;;;4994318;28;21273;-84
2023/04/04 07:23:15;;;;;;;8.80;4.97;;;2.90;44.90;;;;;;4989280;28;20447;-83
2023/04/04 07:25:44;;;;;;;7.43;4.07;;;3.10;8.30;;;;;;4992082;28;20545;-82
2023/04/04 07:28:11;;;;;;;8.67;4.37;;;3.40;1.00;;;;;;4993215;28;20567;-82
2023/04/04 07:30:37;;;;;;;10.47;4.40;;;3.60;1.00;;;;;;4993099;28;20537;-84
2023/04/04 07:33:04;;;;;;;6.40;4.07;;;3.60;1.00;;;;;;4995774;28;20860;-83
2023/04/04 07:35:31;;;;;;;6.80;3.67;;;3.70;1.00;;;;;;4993913;28;20478;-84
2023/04/04 07:37:58;;;;;;;4.93;2.63;;;3.80;1.00;;;;;;4993227;28;20472;-83
2023/04/04 07:40:26;;;;;;;6.30;3.10;;;3.90;1.00;;;;;;4994759;28;20468;-83
2023/04/04 07:42:54;;;;;;;4.90;2.83;;;4.10;1.00;;;;;;4992237;28;20921;-82
2023/04/04 07:45:21;;;;;;;6.80;2.97;;;4.20;1.00;;;;;;4992951;28;20933;-83
2023/04/04 07:47:48;;;;;;;4.93;2.00;;;4.40;99.90;;;;;;4998428;28;20529;-82
2023/04/04 07:50:15;;;;;;;3.60;2.07;;;4.70;99.90;;;;;;4997537;28;20494;-83
2023/04/04 07:52:53;;;;;;;4.03;1.77;;;4.80;99.90;;;;;;4995866;28;20458;-82
2023/04/04 07:55:20;;;;;;;4.20;2.10;;;4.90;99.90;;;;;;4992789;28;20456;-83
2023/04/04 07:57:47;;;;;;;5.93;2.30;;;5.00;99.90;;;;;;4997623;28;20550;-83
2023/04/04 08:00:18;;;;;;;5.93;1.70;;;5.30;99.90;;;;;;4992664;28;20442;-83
2023/04/04 08:02:45;;;;;;;6.20;2.30;;;5.50;99.90;;;;;;4982200;28;20469;-84
2023/04/04 08:05:12;;;;;;;4.93;2.20;;;5.90;99.90;;;;;;4997697;28;20450;-82
2023/04/04 08:07:38;;;;;;;2.83;1.80;;;6.20;99.90;;;;;;4997429;28;20571;-82
2023/04/04 08:10:07;;;;;;;3.70;1.70;;;6.70;99.90;;;;;;4992476;28;20977;-85
2023/04/04 08:12:34;;;;;;;3.70;1.60;;;7.00;99.90;;;;;;4993267;28;20540;-82
2023/04/04 08:15:01;;;;;;;5.77;1.73;;;7.00;99.90;;;;;;4991112;28;21186;-83
2023/04/04 08:17:29;;;;;;;3.07;2.00;;;7.10;99.90;;;;;;4990471;28;20492;-83
2023/04/04 08:19:56;;;;;;;4.47;1.60;;;7.60;99.90;;;;;;4998316;28;20549;-84
2023/04/04 08:22:23;;;;;;;2.00;1.23;;;8.00;99.90;;;;;;4989983;28;20970;-82
2023/04/04 08:24:49;;;;;;;4.33;1.40;;;8.30;99.90;;;;;;4996268;28;20466;-84
2023/04/04 08:27:16;;;;;;;2.83;1.50;;;8.90;99.90;;;;;;4994340;28;20548;-83
2023/04/04 08:29:44;;;;;;;11.10;1.53;;;9.80;99.90;;;;;;4995638;28;20582;-83
2023/04/04 08:32:11;;;;;;;2.20;1.60;;;10.50;99.90;;;;;;4996754;28;20854;-80
2023/04/04 08:34:40;;;;;;;4.60;1.60;;;11.40;99.90;;;;;;4997255;28;20451;-83
2023/04/04 08:37:06;;;;;;;3.63;1.67;;;12.40;99.90;;;;;;4988164;28;20458;-83
2023/04/04 08:39:33;;;;;;;5.53;2.20;;;13.30;99.90;;;;;;4995851;28;20553;-82
2023/04/04 08:42:04;;;;;;;2.90;1.30;;;13.80;99.90;;;;;;4994920;28;20963;-84
2023/04/04 08:44:31;;;;;;;3.87;1.93;;;14.30;99.90;;;;;;4990593;28;20458;-83
2023/04/04 08:47:00;;;;;;;2.80;1.57;;;15.10;99.90;;;;;;4995847;28;20478;-81
2023/04/04 08:49:29;;;;;;;4.60;1.60;;;16.30;99.90;;;;;;4997430;28;20494;-82
2023/04/04 08:51:59;;;;;;;5.97;1.60;;;16.00;99.90;;;;;;4992794;28;20462;-82
2023/04/04 08:54:28;;;;;;;3.07;1.50;;;15.00;99.90;;;;;;4998409;28;20497;-82
2023/04/04 08:56:55;;;;;;;4.67;1.70;;;15.90;99.90;;;;;;4998322;28;20506;-82
2023/04/04 08:59:22;;;;;;;4.63;1.50;;;15.20;99.90;;;;;;4997492;28;20547;-81
2023/04/04 09:01:51;;;;;;;6.00;1.63;;;16.10;99.90;;;;;;4995291;28;20878;-81
2023/04/04 09:04:21;;;;;;;5.40;1.60;;;16.20;99.90;;;;;;4992386;28;20460;-81
2023/04/04 09:06:48;;;;;;;3.33;1.67;;;15.70;99.90;;;;;;4992559;28;20479;-80
2023/04/04 09:09:17;;;;;;;5.23;2.10;;;14.90;99.90;;;;;;4991163;28;20491;-85
2023/04/04 09:11:47;;;;;;;3.87;1.67;;;15.80;99.90;;;;;;4990384;28;20822;-81
2023/04/04 09:14:15;;;;;;;4.07;1.67;;;16.10;99.90;;;;;;4998121;28;20454;-82
2023/04/04 09:16:42;;;;;;;3.10;1.60;;;16.00;99.90;;;;;;4999235;28;20836;-83
2023/04/04 09:19:08;;;;;;;3.53;1.60;;;16.20;99.90;;;;;;4999009;28;20474;-84
2023/04/04 09:21:37;;;;;;;3.30;1.60;;;16.50;99.90;;;;;;4995722;28;20855;-82
2023/04/04 09:24:04;;;;;;;10.20;1.63;;;17.60;99.90;;;;;;4994370;28;20456;-83
2023/04/04 09:26:47;;;;;;;2.30;1.30;;;18.70;99.90;;;;;;4996182;28;20544;-81
2023/04/04 09:29:13;;;;;;;3.33;1.70;;;18.80;99.90;;;;;;4990572;28;21021;-82
2023/04/04 09:31:45;;;;;;;5.30;1.73;;;18.80;99.90;;;;;;4998315;28;20490;-83
2023/04/04 09:34:12;;;;;;;3.07;1.83;;;19.40;99.90;;;;;;5001874;28;20458;-84
2023/04/04 09:36:39;;;;;;;4.23;1.40;;;18.40;99.90;;;;;;5001010;28;20445;-83
2023/04/04 09:39:07;;;;;;;3.10;2.10;;;18.80;99.90;;;;;;4995026;28;20978;-84
2023/04/04 09:41:38;;;;;;;4.43;1.63;;;19.30;99.90;;;;;;4991599;28;20529;-84
2023/04/04 09:44:05;;;;;;;4.03;1.90;;;17.90;99.90;;;;;;4995026;28;20458;-84
2023/04/04 09:46:34;;;;;;;4.40;2.00;;;18.30;99.90;;;;;;4997101;28;20493;-83
2023/04/04 09:49:01;;;;;;;4.17;2.10;;;18.90;99.90;;;;;;4994278;28;21025;-82
2023/04/04 09:51:34;;;;;;;4.53;1.97;;;19.90;99.90;;;;;;4994232;28;20813;-83
2023/04/04 09:54:02;;;;;;;3.60;2.03;;;21.10;99.90;;;;;;4994109;28;20830;-83
2023/04/04 09:56:29;;;;;;;4.40;2.37;;;21.00;1.00;;;;;;4994498;28;20461;-83
2023/04/04 09:58:57;;;;;;;3.80;1.80;;;21.00;99.90;;;;;;4995814;28;20519;-84
2023/04/04 10:01:25;;;;;;;4.20;2.00;;;19.40;99.90;;;;;;4997136;28;20484;-82
2023/04/04 10:03:53;;;;;;;5.30;2.67;;;20.50;99.90;;;;;;4989577;28;20465;-84
2023/04/04 10:06:21;;;;;;;5.13;2.00;;;19.30;99.90;;;;;;4996870;28;20446;-84
2023/04/04 10:08:49;;;;;;;3.93;1.73;;;19.00;99.90;;;;;;4993509;28;20856;-84
2023/04/04 10:11:29;;;;;;;3.57;1.80;;;19.50;99.90;;;;;;4989524;28;20457;-83
2023/04/04 10:13:59;;;;;;;4.60;2.10;;;20.10;99.90;;;;;;4996797;28;20457;-83
2023/04/04 10:16:26;;;;;;;3.93;1.70;;;20.90;99.90;;;;;;4992730;28;20493;-84
2023/04/04 10:18:53;;;;;;;3.13;1.97;;;21.60;99.90;;;;;;4996155;28;20500;-85
2023/04/04 10:21:21;;;;;;;2.90;1.47;;;22.60;99.90;;;;;;4997286;28;20518;-83
2023/04/04 10:23:49;;;;;;;4.07;2.20;;;23.30;99.90;;;;;;4999902;28;20459;-83
2023/04/04 10:26:16;;;;;;;2.70;1.90;;;23.30;99.90;;;;;;4998977;28;20490;-83
2023/04/04 10:28:43;;;;;;;4.23;2.20;;;23.10;99.90;;;;;;4999673;28;20564;-84
2023/04/04 10:31:17;;;;;;;4.87;2.23;;;22.40;99.90;;;;;;4997179;28;20482;-83
2023/04/04 10:33:50;;;;;;;5.70;2.13;;;21.20;99.90;;;;;;5000176;28;20458;-84
2023/04/04 10:36:22;;;;;;;3.80;1.93;;;22.80;99.90;;;;;;4992872;28;20478;-83
2023/04/04 10:38:57;;;;;;;4.50;2.20;;;22.50;99.90;;;;;;4995584;28;20525;-83
2023/04/04 10:41:27;;;;;;;3.47;1.60;;;23.10;99.90;;;;;;4996285;28;20488;-82
2023/04/04 10:43:58;;;;;;;4.10;2.13;;;24.30;99.90;;;;;;4995499;28;20974;-83
2023/04/04 10:46:29;;;;;;;4.20;2.13;;;24.40;99.90;;;;;;4995171;28;21010;-82
2023/04/04 10:48:57;;;;;;;4.23;1.93;;;24.20;99.90;;;;;;4995438;28;20566;-82
2023/04/04 10:51:25;;;;;;;3.57;1.90;;;22.80;99.90;;;;;;4987809;28;20586;-82
2023/04/04 10:53:52;;;;;;;3.37;2.10;;;23.40;99.90;;;;;;4996368;28;20455;-83
2023/04/04 10:56:20;;;;;;;4.47;1.90;;;22.70;99.90;;;;;;4991836;28;20525;-82
2023/04/04 10:58:48;;;;;;;4.37;1.90;;;24.60;99.90;;;;;;4985034;28;20546;-81
2023/04/04 11:01:19;;;;;;;3.80;1.87;;;25.30;99.90;;;;;;4991337;28;20450;-82
2023/04/04 11:04:18;;;;;;;3.80;2.13;;;24.90;99.90;;;;;;4998412;28;20446;-82
2023/04/04 11:07:13;;;;;;;3.80;1.90;;;25.30;99.90;;;;;;4979417;28;20459;-81
2023/04/04 11:09:51;;;;;;;4.07;1.90;;;25.60;99.90;;;;;;4995744;28;20489;-84
2023/04/04 11:12:22;;;;;;;4.63;2.23;;;25.00;99.90;;;;;;4994537;28;20446;-83
2023/04/04 11:15:17;;;;;;;3.97;2.23;;;24.40;99.90;;;;;;4993817;28;20460;-83
2023/04/04 11:17:57;;;;;;;5.80;2.10;;;25.20;99.90;;;;;;4985177;28;20502;-83
2023/04/04 11:20:30;;;;;;;2.80;1.93;;;24.40;99.90;;;;;;4989856;28;20867;-82
2023/04/04 11:23:08;;;;;;;5.50;1.67;;;25.60;99.90;;;;;;4995853;28;20440;-81
2023/04/04 11:25:40;;;;;;;2.67;2.13;;;25.20;99.90;;;;;;4992256;28;20451;-81
2023/04/04 11:28:15;;;;;;;3.53;1.70;;;24.50;99.90;;;;;;4994785;28;20471;-84
2023/04/04 11:30:49;;;;;;;3.07;1.80;;;25.70;99.90;;;;;;4992181;28;20478;-80
2023/04/04 11:33:27;;;;;;;2.97;1.87;;;25.00;99.90;;;;;;4992279;28;20478;-83
2023/04/04 11:35:59;;;;;;;3.60;1.87;;;25.60;99.90;;;;;;4998299;28;21231;-83
2023/04/04 11:38:28;;;;;;;4.17;2.37;;;26.50;99.90;;;;;;4994640;28;20471;-80
2023/04/04 11:40:57;;;;;;;2.67;2.03;;;26.20;99.90;;;;;;4999809;28;20454;-82
2023/04/04 11:43:25;;;;;;;3.20;1.90;;;27.60;99.90;;;;;;4990932;28;20514;-83
2023/04/04 11:45:54;;;;;;;3.70;2.20;;;27.40;99.90;;;;;;4998262;28;20451;-84
2023/04/04 11:48:23;;;;;;;8.00;2.93;;;27.40;99.90;;;;;;4998017;28;20583;-83
2023/04/04 11:50:51;;;;;;;3.00;1.67;;;25.40;99.90;;;;;;4997839;28;20486;-82
2023/04/04 11:53:19;;;;;;;3.60;2.40;;;25.70;99.90;;;;;;4994902;28;20454;-83
2023/04/04 11:55:51;;;;;;;4.20;2.30;;;26.10;99.90;;;;;;4997487;28;20458;-83
2023/04/04 11:58:19;;;;;;;4.20;2.17;;;26.30;99.90;;;;;;4998330;28;21070;-83
2023/04/04 12:00:46;;;;;;;4.67;2.00;;;26.50;99.90;;;;;;4997723;28;20829;-83
2023/04/04 12:03:17;;;;;;;4.20;1.73;;;25.80;99.90;;;;;;4985554;28;20558;-83
2023/04/04 12:05:45;;;;;;;4.70;1.90;;;25.70;99.90;;;;;;5000984;28;20918;-84
2023/04/04 12:08:14;;;;;;;4.33;2.23;;;26.60;99.90;;;;;;4995758;28;20470;-82
2023/04/04 12:10:43;;;;;;;4.00;2.20;;;26.50;99.90;;;;;;4999275;28;20486;-83
2023/04/04 12:13:10;;;;;;;5.47;3.03;;;27.80;99.90;;;;;;5000255;28;20481;-83
2023/04/04 12:15:37;;;;;;;4.00;2.50;;;28.70;99.90;;;;;;4996815;28;20989;-84
2023/04/04 12:18:07;;;;;;;4.20;2.37;;;28.10;99.90;;;;;;5000004;28;20557;-83
2023/04/04 12:20:34;;;;;;;4.33;2.30;;;29.10;99.90;;;;;;5001894;28;20454;-83
2023/04/04 12:23:01;;;;;;;3.50;2.83;;;29.70;99.90;;;;;;5005574;28;20553;-84
2023/04/04 12:25:32;;;;;;;4.90;2.57;;;28.10;99.90;;;;;;5009673;28;20490;-84
2023/04/04 12:28:04;;;;;;;4.30;3.13;;;26.90;99.90;;;;;;4999836;28;20467;-83
2023/04/04 12:30:32;;;;;;;5.07;2.90;;;25.80;99.90;;;;;;5005883;28;20473;-83
2023/04/04 12:32:59;;;;;;;4.90;3.00;;;25.40;99.90;;;;;;5008648;28;20446;-84
2023/04/04 12:35:26;;;;;;;3.70;2.07;;;26.20;99.90;;;;;;5001088;28;21959;-83
2023/04/04 12:38:01;;;;;;;4.30;2.90;;;26.80;99.90;;;;;;4988713;28;20474;-83
2023/04/04 12:40:36;;;;;;;5.90;2.30;;;26.70;99.90;;;;;;4993887;28;20446;-84
2023/04/04 12:43:06;;;;;;;5.50;3.27;;;27.80;99.90;;;;;;4997200;28;20497;-83
2023/04/04 12:45:37;;;;;;;4.47;1.90;;;26.40;99.90;;;;;;4990156;28;20451;-83
2023/04/04 12:48:12;;;;;;;4.60;2.27;;;26.80;99.90;;;;;;4995476;28;20888;-84
2023/04/04 12:50:52;;;;;;;4.60;2.40;;;26.30;99.90;;;;;;4989716;28;20537;-83
2023/04/04 12:53:21;;;;;;;5.40;1.90;;;28.10;99.90;;;;;;4994444;28;20513;-83
2023/04/04 12:55:49;;;;;;;10.77;2.97;;;27.40;99.90;;;;;;4996438;28;20465;-82
2023/04/04 12:58:19;;;;;;;2.93;1.87;;;27.00;99.90;;;;;;4997604;28;20485;-83
2023/04/04 13:00:47;;;;;;;3.93;2.60;;;28.40;99.90;;;;;;4994348;28;20497;-82